Search for airport 
image banner adimage banner adimage banner ad
image banner ad

60PN - Jefferson Hospital

Located in Large, United States

ICAO - 60PN, IATA -

Data provided by Airmate  

General information

Coordinates: N40°19'6" W79°56'3"
Elevation is 1156 feet MSL.
Magnetic variation is -08° East
View others Airports in Pennsylvania

Operational data

Special qualification required
Current time UTC:
Current local time:
Weather at : KAGC - Allegheny County ( 4 km )
METAR: KAGC 071153Z 33004KT 10SM OVC060 08/05 A2987 RMK AO2 SLP122 T00780050 10083 20061 55000
TAF: KAGC 071133Z 0712/0812 VRB03KT P6SM -SHRA OVC040 FM071300 27004KT P6SM -SHRA OVC025 FM071500 28006KT 5SM -SHRA OVC010 TEMPO 0715/0717 OVC008 FM071900 31008G16KT P6SM VCSH BKN020 FM072100 31008KT P6SM BKN045 FM080500 25003KT P6SM VCSH OVC015
View NOTAMs / SUP AIP / TFR affecting this airport [VIEW]
Communications frequencies: [VIEW]

Runways:

Airport contact information

Address: Large United States

Satellite view of 60PN